sensor_id;sensor_type;location;lat;lon;timestamp;P1;durP1;ratioP1;P2;durP2;ratioP2
69207;SDS011;70114;47.690;8.898;2024-01-15T00:02:01;15.50;;;3.90;;
69207;SDS011;70114;47.690;8.898;2024-01-15T00:04:28;10.98;;;3.88;;
69207;SDS011;70114;47.690;8.898;2024-01-15T00:06:53;12.07;;;3.57;;
69207;SDS011;70114;47.690;8.898;2024-01-15T00:09:19;13.70;;;4.20;;
69207;SDS011;70114;47.690;8.898;2024-01-15T00:11:44;11.30;;;3.50;;
69207;SDS011;70114;47.690;8.898;2024-01-15T00:14:09;13.35;;;3.78;;
69207;SDS011;70114;47.690;8.898;2024-01-15T00:16:35;10.70;;;3.27;;
69207;SDS011;70114;47.690;8.898;2024-01-15T00:19:00;10.87;;;3.43;;
69207;SDS011;70114;47.690;8.898;2024-01-15T00:21:26;14.20;;;3.40;;
69207;SDS011;70114;47.690;8.898;2024-01-15T00:23:52;12.70;;;3.28;;
69207;SDS011;70114;47.690;8.898;2024-01-15T00:26:18;10.50;;;2.87;;
69207;SDS011;70114;47.690;8.898;2024-01-15T00:28:44;9.38;;;3.10;;
69207;SDS011;70114;47.690;8.898;2024-01-15T00:31:09;11.70;;;2.73;;
69207;SDS011;70114;47.690;8.898;2024-01-15T00:33:34;13.40;;;3.23;;
69207;SDS011;70114;47.690;8.898;2024-01-15T00:36:00;11.77;;;2.97;;
69207;SDS011;70114;47.690;8.898;2024-01-15T00:38:25;10.23;;;2.65;;
69207;SDS011;70114;47.690;8.898;2024-01-15T00:40:51;13.37;;;3.50;;
69207;SDS011;70114;47.690;8.898;2024-01-15T00:43:16;11.37;;;3.07;;
69207;SDS011;70114;47.690;8.898;2024-01-15T00:45:44;9.20;;;2.60;;
69207;SDS011;70114;47.690;8.898;2024-01-15T00:48:09;11.40;;;3.10;;
69207;SDS011;70114;47.690;8.898;2024-01-15T00:50:35;12.20;;;2.90;;
69207;SDS011;70114;47.690;8.898;2024-01-15T00:53:00;10.60;;;2.73;;
69207;SDS011;70114;47.690;8.898;2024-01-15T00:55:28;11.60;;;2.80;;
69207;SDS011;70114;47.690;8.898;2024-01-15T00:57:54;16.55;;;4.53;;
69207;SDS011;70114;47.690;8.898;2024-01-15T01:00:19;11.77;;;2.93;;
69207;SDS011;70114;47.690;8.898;2024-01-15T01:02:44;11.10;;;2.90;;
69207;SDS011;70114;47.690;8.898;2024-01-15T01:05:10;10.33;;;3.23;;
69207;SDS011;70114;47.690;8.898;2024-01-15T01:07:35;10.63;;;3.00;;
69207;SDS011;70114;47.690;8.898;2024-01-15T01:10:00;10.33;;;2.93;;
69207;SDS011;70114;47.690;8.898;2024-01-15T01:12:26;12.37;;;3.20;;
69207;SDS011;70114;47.690;8.898;2024-01-15T01:14:51;9.75;;;2.25;;
69207;SDS011;70114;47.690;8.898;2024-01-15T01:17:17;10.23;;;2.80;;
69207;SDS011;70114;47.690;8.898;2024-01-15T01:19:42;9.53;;;2.87;;
69207;SDS011;70114;47.690;8.898;2024-01-15T01:22:07;9.77;;;2.87;;
69207;SDS011;70114;47.690;8.898;2024-01-15T01:24:33;10.57;;;2.43;;
69207;SDS011;70114;47.690;8.898;2024-01-15T01:26:58;11.83;;;3.10;;
69207;SDS011;70114;47.690;8.898;2024-01-15T01:29:24;10.03;;;2.63;;
69207;SDS011;70114;47.690;8.898;2024-01-15T01:31:49;11.80;;;2.70;;
69207;SDS011;70114;47.690;8.898;2024-01-15T01:34:15;10.60;;;2.50;;
69207;SDS011;70114;47.690;8.898;2024-01-15T01:36:44;11.88;;;2.95;;
69207;SDS011;70114;47.690;8.898;2024-01-15T01:39:09;11.50;;;2.95;;
69207;SDS011;70114;47.690;8.898;2024-01-15T01:41:35;10.63;;;2.57;;
69207;SDS011;70114;47.690;8.898;2024-01-15T01:44:01;11.85;;;2.45;;
69207;SDS011;70114;47.690;8.898;2024-01-15T01:46:27;10.47;;;2.57;;
69207;SDS011;70114;47.690;8.898;2024-01-15T01:48:53;9.30;;;2.35;;
69207;SDS011;70114;47.690;8.898;2024-01-15T01:51:20;11.35;;;2.40;;
69207;SDS011;70114;47.690;8.898;2024-01-15T01:53:48;11.37;;;2.70;;
69207;SDS011;70114;47.690;8.898;2024-01-15T01:56:14;11.88;;;2.75;;
69207;SDS011;70114;47.690;8.898;2024-01-15T01:58:40;11.90;;;2.58;;
69207;SDS011;70114;47.690;8.898;2024-01-15T02:01:06;10.57;;;2.67;;
69207;SDS011;70114;47.690;8.898;2024-01-15T02:03:32;12.63;;;2.45;;
69207;SDS011;70114;47.690;8.898;2024-01-15T02:05:58;9.68;;;2.47;;
69207;SDS011;70114;47.690;8.898;2024-01-15T02:08:24;11.70;;;2.83;;
69207;SDS011;70114;47.690;8.898;2024-01-15T02:10:50;11.82;;;2.92;;
69207;SDS011;70114;47.690;8.898;2024-01-15T02:13:16;9.93;;;3.30;;
69207;SDS011;70114;47.690;8.898;2024-01-15T02:15:42;13.27;;;2.95;;
69207;SDS011;70114;47.690;8.898;2024-01-15T02:18:08;10.93;;;3.00;;
69207;SDS011;70114;47.690;8.898;2024-01-15T02:20:33;12.90;;;3.00;;
69207;SDS011;70114;47.690;8.898;2024-01-15T02:25:34;12.73;;;3.03;;
69207;SDS011;70114;47.690;8.898;2024-01-15T02:28:01;10.52;;;3.28;;
69207;SDS011;70114;47.690;8.898;2024-01-15T02:30:26;12.52;;;3.33;;
69207;SDS011;70114;47.690;8.898;2024-01-15T02:32:53;11.60;;;3.05;;
69207;SDS011;70114;47.690;8.898;2024-01-15T02:35:18;10.77;;;2.87;;
69207;SDS011;70114;47.690;8.898;2024-01-15T02:37:44;13.33;;;3.50;;
69207;SDS011;70114;47.690;8.898;2024-01-15T02:40:09;13.10;;;3.60;;
69207;SDS011;70114;47.690;8.898;2024-01-15T02:42:35;12.98;;;3.47;;
69207;SDS011;70114;47.690;8.898;2024-01-15T02:45:00;13.50;;;3.77;;
69207;SDS011;70114;47.690;8.898;2024-01-15T02:47:26;15.00;;;3.80;;
69207;SDS011;70114;47.690;8.898;2024-01-15T02:49:51;13.37;;;3.97;;
69207;SDS011;70114;47.690;8.898;2024-01-15T02:52:16;14.13;;;3.70;;
69207;SDS011;70114;47.690;8.898;2024-01-15T02:54:42;13.63;;;3.43;;
69207;SDS011;70114;47.690;8.898;2024-01-15T02:57:08;11.53;;;3.60;;
69207;SDS011;70114;47.690;8.898;2024-01-15T02:59:33;11.83;;;3.37;;
69207;SDS011;70114;47.690;8.898;2024-01-15T03:01:58;13.55;;;3.80;;
69207;SDS011;70114;47.690;8.898;2024-01-15T03:04:24;13.40;;;3.73;;
69207;SDS011;70114;47.690;8.898;2024-01-15T03:06:49;15.03;;;4.10;;
69207;SDS011;70114;47.690;8.898;2024-01-15T03:09:15;13.57;;;4.13;;
69207;SDS011;70114;47.690;8.898;2024-01-15T03:11:40;12.83;;;3.43;;
69207;SDS011;70114;47.690;8.898;2024-01-15T03:14:06;13.93;;;4.03;;
69207;SDS011;70114;47.690;8.898;2024-01-15T03:16:31;13.40;;;3.07;;
69207;SDS011;70114;47.690;8.898;2024-01-15T03:18:56;13.73;;;3.73;;
69207;SDS011;70114;47.690;8.898;2024-01-15T03:21:22;14.73;;;3.37;;
69207;SDS011;70114;47.690;8.898;2024-01-15T03:23:47;15.20;;;3.67;;
69207;SDS011;70114;47.690;8.898;2024-01-15T03:26:12;13.75;;;3.50;;
69207;SDS011;70114;47.690;8.898;2024-01-15T03:28:38;13.87;;;3.77;;
69207;SDS011;70114;47.690;8.898;2024-01-15T03:31:03;14.37;;;3.67;;
69207;SDS011;70114;47.690;8.898;2024-01-15T03:33:28;15.23;;;3.90;;
69207;SDS011;70114;47.690;8.898;2024-01-15T03:35:54;13.47;;;3.97;;
69207;SDS011;70114;47.690;8.898;2024-01-15T03:38:19;13.93;;;4.07;;
69207;SDS011;70114;47.690;8.898;2024-01-15T03:40:45;15.07;;;3.87;;
69207;SDS011;70114;47.690;8.898;2024-01-15T03:43:10;13.53;;;3.77;;
69207;SDS011;70114;47.690;8.898;2024-01-15T03:45:35;15.77;;;4.40;;
69207;SDS011;70114;47.690;8.898;2024-01-15T03:48:01;16.50;;;4.37;;
69207;SDS011;70114;47.690;8.898;2024-01-15T03:50:26;15.90;;;4.37;;
69207;SDS011;70114;47.690;8.898;2024-01-15T03:52:51;17.20;;;4.53;;
69207;SDS011;70114;47.690;8.898;2024-01-15T03:55:17;15.73;;;4.00;;
69207;SDS011;70114;47.690;8.898;2024-01-15T03:57:42;13.60;;;4.15;;
69207;SDS011;70114;47.690;8.898;2024-01-15T04:00:08;14.77;;;4.40;;
69207;SDS011;70114;47.690;8.898;2024-01-15T04:02:33;16.67;;;4.67;;
69207;SDS011;70114;47.690;8.898;2024-01-15T04:04:59;15.68;;;4.20;;
69207;SDS011;70114;47.690;8.898;2024-01-15T04:07:24;16.87;;;3.93;;
69207;SDS011;70114;47.690;8.898;2024-01-15T04:09:50;16.33;;;4.37;;
69207;SDS011;70114;47.690;8.898;2024-01-15T04:12:15;17.47;;;3.90;;
69207;SDS011;70114;47.690;8.898;2024-01-15T04:14:40;14.63;;;3.87;;
69207;SDS011;70114;47.690;8.898;2024-01-15T04:17:06;16.93;;;4.27;;
69207;SDS011;70114;47.690;8.898;2024-01-15T04:19:31;17.87;;;4.83;;
69207;SDS011;70114;47.690;8.898;2024-01-15T04:21:56;14.30;;;4.47;;
69207;SDS011;70114;47.690;8.898;2024-01-15T04:24:22;17.05;;;3.85;;
69207;SDS011;70114;47.690;8.898;2024-01-15T04:26:47;14.83;;;3.93;;
69207;SDS011;70114;47.690;8.898;2024-01-15T04:29:12;14.67;;;4.30;;
69207;SDS011;70114;47.690;8.898;2024-01-15T04:31:38;16.63;;;4.27;;
69207;SDS011;70114;47.690;8.898;2024-01-15T04:34:03;16.60;;;3.60;;
69207;SDS011;70114;47.690;8.898;2024-01-15T04:36:28;14.27;;;3.70;;
69207;SDS011;70114;47.690;8.898;2024-01-15T04:38:54;13.80;;;3.77;;
69207;SDS011;70114;47.690;8.898;2024-01-15T04:41:19;12.60;;;3.67;;
69207;SDS011;70114;47.690;8.898;2024-01-15T04:43:45;14.23;;;3.67;;
69207;SDS011;70114;47.690;8.898;2024-01-15T04:46:10;14.90;;;3.70;;
69207;SDS011;70114;47.690;8.898;2024-01-15T04:48:36;15.97;;;3.90;;
69207;SDS011;70114;47.690;8.898;2024-01-15T04:51:04;14.93;;;4.03;;
69207;SDS011;70114;47.690;8.898;2024-01-15T04:53:30;17.33;;;4.43;;
69207;SDS011;70114;47.690;8.898;2024-01-15T04:55:55;20.40;;;4.43;;
69207;SDS011;70114;47.690;8.898;2024-01-15T04:58:20;16.80;;;3.87;;
69207;SDS011;70114;47.690;8.898;2024-01-15T05:00:46;17.53;;;4.97;;
69207;SDS011;70114;47.690;8.898;2024-01-15T05:03:11;16.73;;;4.37;;
69207;SDS011;70114;47.690;8.898;2024-01-15T05:05:36;16.38;;;4.05;;
69207;SDS011;70114;47.690;8.898;2024-01-15T05:08:02;15.70;;;4.10;;
69207;SDS011;70114;47.690;8.898;2024-01-15T05:10:27;16.47;;;4.17;;
69207;SDS011;70114;47.690;8.898;2024-01-15T05:12:53;17.27;;;4.33;;
69207;SDS011;70114;47.690;8.898;2024-01-15T05:15:18;17.03;;;4.17;;
69207;SDS011;70114;47.690;8.898;2024-01-15T05:17:43;14.98;;;3.25;;
69207;SDS011;70114;47.690;8.898;2024-01-15T05:20:09;15.93;;;4.20;;
69207;SDS011;70114;47.690;8.898;2024-01-15T05:22:35;13.50;;;3.80;;
69207;SDS011;70114;47.690;8.898;2024-01-15T05:25:00;15.95;;;3.70;;
69207;SDS011;70114;47.690;8.898;2024-01-15T05:27:25;17.97;;;4.23;;
69207;SDS011;70114;47.690;8.898;2024-01-15T05:29:51;14.20;;;3.77;;
69207;SDS011;70114;47.690;8.898;2024-01-15T05:32:17;13.57;;;3.10;;
69207;SDS011;70114;47.690;8.898;2024-01-15T05:34:42;15.13;;;3.83;;
69207;SDS011;70114;47.690;8.898;2024-01-15T05:37:07;15.18;;;3.17;;
69207;SDS011;70114;47.690;8.898;2024-01-15T05:39:33;13.93;;;2.63;;
69207;SDS011;70114;47.690;8.898;2024-01-15T05:41:58;12.80;;;3.17;;
69207;SDS011;70114;47.690;8.898;2024-01-15T05:44:24;14.80;;;3.27;;
69207;SDS011;70114;47.690;8.898;2024-01-15T05:46:49;14.37;;;3.13;;
69207;SDS011;70114;47.690;8.898;2024-01-15T05:49:14;13.13;;;3.00;;
69207;SDS011;70114;47.690;8.898;2024-01-15T05:51:40;11.90;;;2.90;;
69207;SDS011;70114;47.690;8.898;2024-01-15T05:54:05;14.93;;;3.20;;
69207;SDS011;70114;47.690;8.898;2024-01-15T05:56:31;13.60;;;3.70;;
69207;SDS011;70114;47.690;8.898;2024-01-15T05:58:56;14.60;;;3.45;;
69207;SDS011;70114;47.690;8.898;2024-01-15T06:01:21;15.10;;;3.47;;
69207;SDS011;70114;47.690;8.898;2024-01-15T06:03:47;13.33;;;3.27;;
69207;SDS011;70114;47.690;8.898;2024-01-15T06:06:12;13.40;;;2.80;;
69207;SDS011;70114;47.690;8.898;2024-01-15T06:08:39;14.20;;;3.50;;
69207;SDS011;70114;47.690;8.898;2024-01-15T06:11:04;12.05;;;2.50;;
69207;SDS011;70114;47.690;8.898;2024-01-15T06:13:31;11.65;;;2.58;;
69207;SDS011;70114;47.690;8.898;2024-01-15T06:15:56;9.43;;;2.20;;
69207;SDS011;70114;47.690;8.898;2024-01-15T06:18:21;10.87;;;2.47;;
69207;SDS011;70114;47.690;8.898;2024-01-15T06:20:47;10.20;;;2.33;;
69207;SDS011;70114;47.690;8.898;2024-01-15T06:23:12;7.97;;;1.93;;
69207;SDS011;70114;47.690;8.898;2024-01-15T06:25:37;9.95;;;2.50;;
69207;SDS011;70114;47.690;8.898;2024-01-15T06:28:03;9.23;;;1.90;;
69207;SDS011;70114;47.690;8.898;2024-01-15T06:30:30;9.43;;;1.90;;
69207;SDS011;70114;47.690;8.898;2024-01-15T06:32:55;11.05;;;2.10;;
69207;SDS011;70114;47.690;8.898;2024-01-15T06:35:20;7.73;;;1.90;;
69207;SDS011;70114;47.690;8.898;2024-01-15T06:37:46;10.80;;;2.77;;
69207;SDS011;70114;47.690;8.898;2024-01-15T06:40:11;10.70;;;2.30;;
69207;SDS011;70114;47.690;8.898;2024-01-15T06:42:36;10.50;;;2.53;;
69207;SDS011;70114;47.690;8.898;2024-01-15T06:45:02;12.13;;;2.83;;
69207;SDS011;70114;47.690;8.898;2024-01-15T06:47:28;11.85;;;2.65;;
69207;SDS011;70114;47.690;8.898;2024-01-15T06:49:54;11.90;;;2.60;;
69207;SDS011;70114;47.690;8.898;2024-01-15T06:52:20;12.15;;;2.70;;
69207;SDS011;70114;47.690;8.898;2024-01-15T06:54:45;10.70;;;2.60;;
69207;SDS011;70114;47.690;8.898;2024-01-15T06:57:10;13.03;;;2.90;;
69207;SDS011;70114;47.690;8.898;2024-01-15T06:59:36;14.10;;;2.67;;
69207;SDS011;70114;47.690;8.898;2024-01-15T07:02:01;13.07;;;2.63;;
69207;SDS011;70114;47.690;8.898;2024-01-15T07:04:26;10.50;;;2.73;;
69207;SDS011;70114;47.690;8.898;2024-01-15T07:06:52;10.37;;;2.30;;
69207;SDS011;70114;47.690;8.898;2024-01-15T07:09:17;9.73;;;2.50;;
69207;SDS011;70114;47.690;8.898;2024-01-15T07:11:46;12.27;;;3.00;;
69207;SDS011;70114;47.690;8.898;2024-01-15T07:14:12;11.77;;;2.70;;
69207;SDS011;70114;47.690;8.898;2024-01-15T07:16:37;12.07;;;2.88;;
69207;SDS011;70114;47.690;8.898;2024-01-15T07:19:03;13.67;;;3.40;;
69207;SDS011;70114;47.690;8.898;2024-01-15T07:21:28;12.87;;;2.80;;
69207;SDS011;70114;47.690;8.898;2024-01-15T07:23:55;15.95;;;4.93;;
69207;SDS011;70114;47.690;8.898;2024-01-15T07:26:20;14.80;;;3.17;;
69207;SDS011;70114;47.690;8.898;2024-01-15T07:28:46;13.02;;;3.17;;
69207;SDS011;70114;47.690;8.898;2024-01-15T07:31:12;12.57;;;3.80;;
69207;SDS011;70114;47.690;8.898;2024-01-15T07:33:37;13.83;;;3.63;;
69207;SDS011;70114;47.690;8.898;2024-01-15T07:36:02;14.27;;;3.23;;
69207;SDS011;70114;47.690;8.898;2024-01-15T07:38:28;11.27;;;2.87;;
69207;SDS011;70114;47.690;8.898;2024-01-15T07:40:53;13.17;;;3.40;;
69207;SDS011;70114;47.690;8.898;2024-01-15T07:43:20;12.45;;;3.72;;
69207;SDS011;70114;47.690;8.898;2024-01-15T07:45:45;14.27;;;3.77;;
69207;SDS011;70114;47.690;8.898;2024-01-15T07:48:11;12.50;;;3.97;;
69207;SDS011;70114;47.690;8.898;2024-01-15T07:50:36;11.40;;;2.63;;
69207;SDS011;70114;47.690;8.898;2024-01-15T07:53:02;12.67;;;3.00;;
69207;SDS011;70114;47.690;8.898;2024-01-15T07:55:28;12.68;;;3.03;;
69207;SDS011;70114;47.690;8.898;2024-01-15T07:57:53;13.27;;;3.03;;
69207;SDS011;70114;47.690;8.898;2024-01-15T08:00:23;12.48;;;2.70;;
69207;SDS011;70114;47.690;8.898;2024-01-15T08:02:49;12.77;;;3.47;;
69207;SDS011;70114;47.690;8.898;2024-01-15T08:05:15;14.95;;;3.80;;
69207;SDS011;70114;47.690;8.898;2024-01-15T08:07:41;14.53;;;3.87;;
69207;SDS011;70114;47.690;8.898;2024-01-15T08:10:06;11.77;;;3.03;;
69207;SDS011;70114;47.690;8.898;2024-01-15T08:12:32;12.00;;;2.77;;
69207;SDS011;70114;47.690;8.898;2024-01-15T08:14:57;13.03;;;3.00;;
69207;SDS011;70114;47.690;8.898;2024-01-15T08:17:23;12.97;;;2.87;;
69207;SDS011;70114;47.690;8.898;2024-01-15T08:19:52;13.48;;;4.38;;
69207;SDS011;70114;47.690;8.898;2024-01-15T08:22:18;11.82;;;2.97;;
69207;SDS011;70114;47.690;8.898;2024-01-15T08:24:44;12.27;;;3.27;;
69207;SDS011;70114;47.690;8.898;2024-01-15T08:27:09;9.10;;;2.50;;
69207;SDS011;70114;47.690;8.898;2024-01-15T08:29:35;12.63;;;3.17;;
69207;SDS011;70114;47.690;8.898;2024-01-15T08:32:00;11.70;;;3.07;;
69207;SDS011;70114;47.690;8.898;2024-01-15T08:34:26;11.20;;;2.83;;
69207;SDS011;70114;47.690;8.898;2024-01-15T08:36:51;8.77;;;2.17;;
69207;SDS011;70114;47.690;8.898;2024-01-15T08:39:17;11.97;;;2.53;;
69207;SDS011;70114;47.690;8.898;2024-01-15T08:41:44;12.43;;;2.70;;
69207;SDS011;70114;47.690;8.898;2024-01-15T08:44:09;9.53;;;2.50;;
69207;SDS011;70114;47.690;8.898;2024-01-15T08:46:35;10.17;;;2.30;;
69207;SDS011;70114;47.690;8.898;2024-01-15T08:49:00;11.00;;;2.90;;
69207;SDS011;70114;47.690;8.898;2024-01-15T08:51:25;9.57;;;2.57;;
69207;SDS011;70114;47.690;8.898;2024-01-15T08:53:51;10.45;;;3.28;;
69207;SDS011;70114;47.690;8.898;2024-01-15T08:56:16;12.67;;;2.93;;
69207;SDS011;70114;47.690;8.898;2024-01-15T08:58:42;12.93;;;2.90;;
69207;SDS011;70114;47.690;8.898;2024-01-15T09:01:07;11.87;;;3.50;;
69207;SDS011;70114;47.690;8.898;2024-01-15T09:03:33;14.05;;;4.00;;
69207;SDS011;70114;47.690;8.898;2024-01-15T09:05:59;15.10;;;3.27;;
69207;SDS011;70114;47.690;8.898;2024-01-15T09:08:24;14.03;;;2.93;;
69207;SDS011;70114;47.690;8.898;2024-01-15T09:10:50;11.83;;;3.43;;
69207;SDS011;70114;47.690;8.898;2024-01-15T09:13:16;12.97;;;3.87;;
69207;SDS011;70114;47.690;8.898;2024-01-15T09:15:41;13.55;;;3.28;;
69207;SDS011;70114;47.690;8.898;2024-01-15T09:18:07;13.57;;;3.22;;
69207;SDS011;70114;47.690;8.898;2024-01-15T09:20:33;12.93;;;2.87;;
69207;SDS011;70114;47.690;8.898;2024-01-15T09:22:58;13.30;;;3.00;;
69207;SDS011;70114;47.690;8.898;2024-01-15T09:25:25;13.97;;;3.50;;
69207;SDS011;70114;47.690;8.898;2024-01-15T09:27:50;16.63;;;4.93;;
69207;SDS011;70114;47.690;8.898;2024-01-15T09:30:15;12.07;;;3.67;;
69207;SDS011;70114;47.690;8.898;2024-01-15T09:32:41;19.63;;;7.13;;
69207;SDS011;70114;47.690;8.898;2024-01-15T09:35:06;15.57;;;4.80;;
69207;SDS011;70114;47.690;8.898;2024-01-15T09:37:32;13.75;;;3.42;;
69207;SDS011;70114;47.690;8.898;2024-01-15T09:39:57;13.90;;;3.73;;
69207;SDS011;70114;47.690;8.898;2024-01-15T09:42:26;14.53;;;4.20;;
69207;SDS011;70114;47.690;8.898;2024-01-15T09:44:53;12.82;;;3.42;;
69207;SDS011;70114;47.690;8.898;2024-01-15T09:47:19;13.65;;;3.40;;
69207;SDS011;70114;47.690;8.898;2024-01-15T09:49:46;12.60;;;3.60;;
69207;SDS011;70114;47.690;8.898;2024-01-15T09:52:12;23.80;;;7.47;;
69207;SDS011;70114;47.690;8.898;2024-01-15T09:54:40;16.10;;;4.70;;
69207;SDS011;70114;47.690;8.898;2024-01-15T09:57:09;12.57;;;3.90;;
69207;SDS011;70114;47.690;8.898;2024-01-15T09:59:34;12.37;;;3.60;;
69207;SDS011;70114;47.690;8.898;2024-01-15T10:02:02;12.35;;;3.30;;
69207;SDS011;70114;47.690;8.898;2024-01-15T10:04:28;12.63;;;3.50;;
69207;SDS011;70114;47.690;8.898;2024-01-15T10:06:53;11.80;;;3.27;;
69207;SDS011;70114;47.690;8.898;2024-01-15T10:09:20;12.07;;;3.13;;
69207;SDS011;70114;47.690;8.898;2024-01-15T10:11:45;11.77;;;2.90;;
69207;SDS011;70114;47.690;8.898;2024-01-15T10:14:11;12.45;;;2.83;;
69207;SDS011;70114;47.690;8.898;2024-01-15T10:16:40;11.40;;;2.70;;
69207;SDS011;70114;47.690;8.898;2024-01-15T10:19:05;12.75;;;3.10;;
69207;SDS011;70114;47.690;8.898;2024-01-15T10:21:32;16.35;;;5.03;;
69207;SDS011;70114;47.690;8.898;2024-01-15T10:23:59;14.13;;;3.40;;
69207;SDS011;70114;47.690;8.898;2024-01-15T10:26:25;11.27;;;3.20;;
69207;SDS011;70114;47.690;8.898;2024-01-15T10:28:51;12.53;;;3.00;;
69207;SDS011;70114;47.690;8.898;2024-01-15T10:31:17;11.88;;;3.08;;
69207;SDS011;70114;47.690;8.898;2024-01-15T10:33:44;11.60;;;2.83;;
69207;SDS011;70114;47.690;8.898;2024-01-15T10:36:10;14.77;;;3.63;;
69207;SDS011;70114;47.690;8.898;2024-01-15T10:38:36;12.05;;;3.17;;
69207;SDS011;70114;47.690;8.898;2024-01-15T10:41:01;18.60;;;4.57;;
69207;SDS011;70114;47.690;8.898;2024-01-15T10:43:27;14.43;;;4.25;;
69207;SDS011;70114;47.690;8.898;2024-01-15T10:45:52;28.97;;;8.23;;
69207;SDS011;70114;47.690;8.898;2024-01-15T10:48:18;23.80;;;7.07;;
69207;SDS011;70114;47.690;8.898;2024-01-15T10:50:44;16.52;;;4.80;;
69207;SDS011;70114;47.690;8.898;2024-01-15T10:53:11;15.18;;;3.42;;
69207;SDS011;70114;47.690;8.898;2024-01-15T10:55:37;12.23;;;3.70;;
69207;SDS011;70114;47.690;8.898;2024-01-15T10:58:04;11.57;;;3.03;;
69207;SDS011;70114;47.690;8.898;2024-01-15T11:00:32;12.80;;;3.17;;
69207;SDS011;70114;47.690;8.898;2024-01-15T11:03:00;10.35;;;3.10;;
69207;SDS011;70114;47.690;8.898;2024-01-15T11:05:27;10.20;;;2.63;;
69207;SDS011;70114;47.690;8.898;2024-01-15T11:07:55;17.90;;;6.30;;
69207;SDS011;70114;47.690;8.898;2024-01-15T11:16:09;11.82;;;2.92;;
69207;SDS011;70114;47.690;8.898;2024-01-15T11:18:38;12.82;;;2.78;;
69207;SDS011;70114;47.690;8.898;2024-01-15T11:28:51;9.23;;;2.28;;
69207;SDS011;70114;47.690;8.898;2024-01-15T11:31:17;9.73;;;2.80;;
69207;SDS011;70114;47.690;8.898;2024-01-15T11:33:47;8.85;;;2.47;;
69207;SDS011;70114;47.690;8.898;2024-01-15T11:36:14;13.00;;;3.03;;
69207;SDS011;70114;47.690;8.898;2024-01-15T11:38:40;8.97;;;2.37;;
69207;SDS011;70114;47.690;8.898;2024-01-15T11:41:14;9.93;;;2.50;;
69207;SDS011;70114;47.690;8.898;2024-01-15T11:43:41;10.50;;;2.15;;
69207;SDS011;70114;47.690;8.898;2024-01-15T11:46:10;9.45;;;1.90;;
69207;SDS011;70114;47.690;8.898;2024-01-15T11:48:43;8.37;;;2.17;;
69207;SDS011;70114;47.690;8.898;2024-01-15T11:51:12;9.23;;;2.05;;
69207;SDS011;70114;47.690;8.898;2024-01-15T11:53:45;9.25;;;2.75;;
69207;SDS011;70114;47.690;8.898;2024-01-15T11:56:15;10.18;;;2.33;;
69207;SDS011;70114;47.690;8.898;2024-01-15T11:58:42;10.23;;;2.40;;
69207;SDS011;70114;47.690;8.898;2024-01-15T12:01:08;8.55;;;2.28;;
69207;SDS011;70114;47.690;8.898;2024-01-15T12:03:34;8.68;;;2.22;;
69207;SDS011;70114;47.690;8.898;2024-01-15T12:05:59;9.17;;;2.67;;
69207;SDS011;70114;47.690;8.898;2024-01-15T12:08:25;8.82;;;2.35;;
69207;SDS011;70114;47.690;8.898;2024-01-15T12:10:52;9.30;;;2.00;;
69207;SDS011;70114;47.690;8.898;2024-01-15T12:13:17;8.90;;;2.25;;
69207;SDS011;70114;47.690;8.898;2024-01-15T12:15:43;9.13;;;2.13;;
69207;SDS011;70114;47.690;8.898;2024-01-15T12:18:10;9.32;;;2.03;;
69207;SDS011;70114;47.690;8.898;2024-01-15T12:20:37;8.10;;;1.98;;
69207;SDS011;70114;47.690;8.898;2024-01-15T12:23:05;8.80;;;2.07;;
69207;SDS011;70114;47.690;8.898;2024-01-15T12:25:31;9.52;;;1.90;;
69207;SDS011;70114;47.690;8.898;2024-01-15T12:27:58;8.15;;;1.83;;
69207;SDS011;70114;47.690;8.898;2024-01-15T12:30:24;8.98;;;2.22;;
69207;SDS011;70114;47.690;8.898;2024-01-15T12:32:51;9.27;;;2.00;;
69207;SDS011;70114;47.690;8.898;2024-01-15T12:35:16;8.17;;;2.00;;
69207;SDS011;70114;47.690;8.898;2024-01-15T12:37:42;7.47;;;1.83;;
69207;SDS011;70114;47.690;8.898;2024-01-15T12:40:09;8.57;;;2.15;;
69207;SDS011;70114;47.690;8.898;2024-01-15T12:42:41;9.32;;;2.20;;
69207;SDS011;70114;47.690;8.898;2024-01-15T12:45:08;7.93;;;2.03;;
69207;SDS011;70114;47.690;8.898;2024-01-15T12:47:38;8.23;;;2.10;;
69207;SDS011;70114;47.690;8.898;2024-01-15T12:50:08;11.13;;;2.72;;
69207;SDS011;70114;47.690;8.898;2024-01-15T12:52:35;11.07;;;2.17;;
69207;SDS011;70114;47.690;8.898;2024-01-15T12:55:03;8.70;;;2.00;;
69207;SDS011;70114;47.690;8.898;2024-01-15T12:57:30;8.93;;;1.83;;
69207;SDS011;70114;47.690;8.898;2024-01-15T12:59:55;7.90;;;1.67;;
69207;SDS011;70114;47.690;8.898;2024-01-15T13:02:20;7.93;;;2.00;;
69207;SDS011;70114;47.690;8.898;2024-01-15T13:04:46;8.53;;;2.10;;
69207;SDS011;70114;47.690;8.898;2024-01-15T13:07:11;7.47;;;1.70;;
69207;SDS011;70114;47.690;8.898;2024-01-15T13:09:37;16.40;;;7.03;;
69207;SDS011;70114;47.690;8.898;2024-01-15T13:12:02;11.00;;;3.57;;
69207;SDS011;70114;47.690;8.898;2024-01-15T13:14:28;8.40;;;2.00;;
69207;SDS011;70114;47.690;8.898;2024-01-15T13:16:54;8.32;;;2.00;;
69207;SDS011;70114;47.690;8.898;2024-01-15T13:19:19;7.60;;;1.70;;
69207;SDS011;70114;47.690;8.898;2024-01-15T13:21:46;6.47;;;1.60;;
69207;SDS011;70114;47.690;8.898;2024-01-15T13:24:12;7.60;;;1.60;;
69207;SDS011;70114;47.690;8.898;2024-01-15T13:26:39;8.10;;;1.80;;
69207;SDS011;70114;47.690;8.898;2024-01-15T13:29:04;7.40;;;1.92;;
69207;SDS011;70114;47.690;8.898;2024-01-15T13:31:30;8.43;;;1.67;;
69207;SDS011;70114;47.690;8.898;2024-01-15T13:33:56;10.48;;;2.47;;
69207;SDS011;70114;47.690;8.898;2024-01-15T13:36:22;10.57;;;2.57;;
69207;SDS011;70114;47.690;8.898;2024-01-15T13:38:48;8.88;;;1.95;;
69207;SDS011;70114;47.690;8.898;2024-01-15T13:41:18;9.10;;;2.05;;
69207;SDS011;70114;47.690;8.898;2024-01-15T13:43:49;8.20;;;2.03;;
69207;SDS011;70114;47.690;8.898;2024-01-15T13:46:14;8.23;;;2.10;;
69207;SDS011;70114;47.690;8.898;2024-01-15T13:48:40;7.33;;;1.80;;
69207;SDS011;70114;47.690;8.898;2024-01-15T13:51:05;7.63;;;2.03;;
69207;SDS011;70114;47.690;8.898;2024-01-15T13:53:31;8.53;;;2.00;;
69207;SDS011;70114;47.690;8.898;2024-01-15T13:55:56;8.30;;;2.10;;
69207;SDS011;70114;47.690;8.898;2024-01-15T13:58:22;9.88;;;2.58;;
69207;SDS011;70114;47.690;8.898;2024-01-15T14:00:47;10.00;;;2.63;;
69207;SDS011;70114;47.690;8.898;2024-01-15T14:03:13;9.40;;;2.47;;
69207;SDS011;70114;47.690;8.898;2024-01-15T14:05:39;10.93;;;2.55;;
69207;SDS011;70114;47.690;8.898;2024-01-15T14:08:05;11.18;;;2.42;;
69207;SDS011;70114;47.690;8.898;2024-01-15T14:10:30;10.87;;;2.50;;
69207;SDS011;70114;47.690;8.898;2024-01-15T14:12:56;10.57;;;3.00;;
69207;SDS011;70114;47.690;8.898;2024-01-15T14:15:21;11.05;;;3.10;;
69207;SDS011;70114;47.690;8.898;2024-01-15T14:17:47;12.10;;;3.63;;
69207;SDS011;70114;47.690;8.898;2024-01-15T14:20:12;11.33;;;3.63;;
69207;SDS011;70114;47.690;8.898;2024-01-15T14:22:38;14.70;;;4.50;;
69207;SDS011;70114;47.690;8.898;2024-01-15T14:25:03;12.18;;;4.03;;
69207;SDS011;70114;47.690;8.898;2024-01-15T14:27:29;13.87;;;3.80;;
69207;SDS011;70114;47.690;8.898;2024-01-15T14:29:54;12.60;;;3.40;;
69207;SDS011;70114;47.690;8.898;2024-01-15T14:32:20;13.43;;;3.73;;
69207;SDS011;70114;47.690;8.898;2024-01-15T14:34:45;11.77;;;3.40;;
69207;SDS011;70114;47.690;8.898;2024-01-15T14:37:11;13.53;;;3.77;;
69207;SDS011;70114;47.690;8.898;2024-01-15T14:39:36;12.90;;;4.00;;
69207;SDS011;70114;47.690;8.898;2024-01-15T14:42:01;12.27;;;3.30;;
69207;SDS011;70114;47.690;8.898;2024-01-15T14:44:27;13.02;;;3.00;;
69207;SDS011;70114;47.690;8.898;2024-01-15T14:46:55;12.30;;;3.65;;